| Place | Name | Time | Raw score | Score |
|---|---|---|---|---|
| 1 | Terrapin | 1:11.29 | 1,000 | 414 |
| 2 | -DarkLlama- | 1:11.38 | 900 | 373 |
| 3 | cerberus❤ | 1:11.41 | 859 | 356 |
| 4 | Seekr | 1:11.65 | 827 | 343 |
| 5 | Brionac | 1:11.92 | 800 | 331 |
| 6 | fentanyl lover <3 | 1:11.98 | 777 | 322 |
| 7 | Predatory_Balloon | 1:12.31 | 756 | 313 |
| 8 | Zany | 1:12.79 | 736 | 305 |
| 9 | Kinix | 1:13.07 | 718 | 297 |
| 10 | Freud | 1:13.84 | 700 | 290 |
| 11 | slug ʕ●.●ʔ | 1:13.86 | 684 | 283 |
| 12 | Erik | 1:14.15 | 669 | 277 |
| 13 | Aiko | 1:14.67 | 654 | 271 |
| 14 | The Blue Fox | 1:15.39 | 640 | 265 |
| 15 | Dreigo | 1:15.79 | 626 | 259 |
| 16 | Go Fish | 1:15.90 | 613 | 254 |
| 17 | PinesOfChaos | 1:15.96 | 600 | 249 |
| 18 | Thermos | 1:16.02 | 588 | 244 |
| 19 | Jay2a | 1:16.06 | 576 | 239 |
| 20 | Camel | 1:16.33 | 565 | 234 |
| 21 | Paparazzi | 1:16.35 | 553 | 229 |
| 22 | TP-N.co PC-118 B-10001110101 | 1:16.39 | 542 | 225 |
| 23 | lefor0416 | 1:16.49 | 531 | 220 |
| 24 | Bridge | 1:16.63 | 521 | 216 |
| 25 | i0nTempest | 1:16.75 | 511 | 212 |
| 26 | Sr. Galán | 1:17.08 | 500 | 207 |
| 27 | Waonder | 1:17.14 | 491 | 203 |
| 28 | notguts | 1:17.16 | 481 | 199 |
| 29 | Backgrounds' | 1:17.21 | 471 | 195 |
| 30 | DasGerippe | 1:17.36 | 462 | 191 |
| 31 | Homulilly (Witch) | 1:17.37 | 453 | 188 |
| 32 | Tribow | 1:17.40 | 444 | 184 |
| 33 | krizithy | 1:17.61 | 435 | 180 |
| 34 | JediKai | 1:17.72 | 426 | 176 |
| 35 | [RYC] Robin Yrvriff | 1:17.84 | 417 | 173 |
| 36 | Hildegard Orgonakkumulator | 1:17.87 | 409 | 169 |
| 36 | nuts | 1:17.87 | 409 | 169 |
| 36 | XiQu3sT | 1:17.87 | 409 | 169 |
| 39 | kivito | 1:17.91 | 384 | 159 |
| 40 | ペレリン | 1:17.93 | 376 | 156 |
| 41 | Kaliphear | 1:17.94 | 368 | 152 |
| 42 | levinv270 | 1:17.95 | 360 | 149 |
| 43 | Nadius | 1:17.98 | 352 | 146 |
| 44 | Sidewinder Fang | 1:18.00 | 345 | 143 |
| 45 | SlowScan | 1:18.02 | 337 | 140 |
| 46 | aerie | 1:18.10 | 330 | 137 |
| 47 | Winter's Crescendo | 1:18.11 | 322 | 133 |
| 48 | pandu | 1:18.13 | 315 | 130 |
| 48 | Tiyenti | 1:18.13 | 315 | 130 |
| 50 | burger | 1:18.14 | 300 | 124 |
| 51 | Californ1a | 1:18.15 | 293 | 121 |
| 52 | cptnbean | 1:18.19 | 286 | 118 |
| 53 | TenTo | 1:18.20 | 279 | 116 |
| 54 | VectorBot | 1:18.21 | 272 | 113 |
| 54 | GaiaGaiyus | 1:18.21 | 272 | 113 |
| 54 | khrisround2 | 1:18.21 | 272 | 113 |
| 57 | Quirked-up White Boy | 1:18.22 | 252 | 104 |
| 57 | Lin | 1:18.22 | 252 | 104 |
| 59 | jason | 1:18.24 | 239 | 99 |
| 60 | Гвоздь | 1:18.25 | 232 | 96 |
| 60 | Topaz95 | 1:18.25 | 232 | 96 |
| 62 | Ebeta2 | 1:18.26 | 219 | 91 |
| 63 | PathToV1ctory | 1:18.28 | 213 | 88 |
| 63 | Todd Bonzalez | 1:18.28 | 213 | 88 |
| 63 | CeruleanAzura | 1:18.28 | 213 | 88 |
| 66 | Irotas | 1:18.29 | 194 | 80 |
| 66 | ENOLA | 1:18.29 | 194 | 80 |
| 68 | Saberik | 1:18.30 | 182 | 75 |
| 68 | Lord Adorable | 1:18.30 | 182 | 75 |
| 70 | Latapi | 1:18.31 | 170 | 70 |
| 71 | -Narcos. | 1:18.32 | 164 | 68 |
| 72 | Luminous | 1:18.33 | 158 | 65 |
| 73 | Belladina | 1:18.34 | 152 | 63 |
| 73 | Geraldo | 1:18.34 | 152 | 63 |
| 75 | CodedCrow | 1:18.37 | 140 | 58 |
| 75 | Azure Zakura | 1:18.37 | 140 | 58 |
| 77 | Big Bootiecoot | 1:18.39 | 129 | 53 |
| 77 | JacquetheRipper | 1:18.39 | 129 | 53 |
| 79 | gusforester | 1:18.41 | 117 | 48 |
| 79 | Overlord | 1:18.41 | 117 | 48 |
| 81 | e⁻ | 1:18.42 | 106 | 44 |
| 82 | lift your tail for me | 1:18.43 | 100 | 41 |
| 83 | VI_fizz | 1:18.44 | 95 | 39 |
| 84 | Joan6694 | 1:18.46 | 89 | 37 |
| 85 | PuppySky | 1:18.47 | 84 | 35 |
| 86 | FluffyTheZombii | 1:18.48 | 79 | 33 |
| 86 | LeFluffySquirrel | 1:18.48 | 79 | 33 |
| 88 | Sogram | 1:18.50 | 68 | 28 |
| 88 | Edragon13 | 1:18.50 | 68 | 28 |
| 90 | Kibōchen | 1:18.51 | 57 | 24 |
| 91 | GTNeon | 1:18.52 | 52 | 22 |
| 92 | Xeno146 | 1:18.54 | 47 | 19 |
| 93 | Azure | 1:18.55 | 41 | 17 |
| 94 | PineFreshGuy | 1:18.57 | 36 | 15 |
| 95 | Lucius | 1:18.59 | 31 | 13 |
| 95 | TheEvilMidnightBomber | 1:18.59 | 31 | 13 |
| 95 | Sexecutioner | 1:18.59 | 31 | 13 |
| 98 | Revan5678 | 1:18.60 | 16 | 7 |
| 98 | Ruslan145 | 1:18.60 | 16 | 7 |
| 100 | Ameba | 1:18.65 | 6 | 2 |
| 101 | Hudbus | 1:18.66 | 0 | 0 |
| 102 | Wolfy Neah | 1:18.69 | 0 | 0 |
| 103 | G5TNo2486 | 1:18.71 | 0 | 0 |
| 103 | OnyxLock | 1:18.71 | 0 | 0 |
| 105 | Reconik | 1:18.72 | 0 | 0 |
| 106 | Drillos | 1:18.73 | 0 | 0 |
| 107 | NeonChaosAwoo | 1:18.74 | 0 | 0 |
| 107 | ImmortalSausages | 1:18.74 | 0 | 0 |
| 107 | scorchers29 | 1:18.74 | 0 | 0 |
| 110 | Qioury | 1:18.75 | 0 | 0 |
| 111 | Milky | 1:18.76 | 0 | 0 |
| 112 | Tem | 1:18.78 | 0 | 0 |
| 112 | Xandrak | 1:18.78 | 0 | 0 |
| 114 | A very silly man indeed | 1:18.80 | 0 | 0 |
| 114 | TheMelonGod | 1:18.80 | 0 | 0 |
| 116 | KingClockwork | 1:18.82 | 0 | 0 |
| 117 | Syntax | 1:18.83 | 0 | 0 |
| 117 | Lor | 1:18.83 | 0 | 0 |
| 117 | ReallyDumbFox | 1:18.83 | 0 | 0 |
| 120 | pcl219 | 1:18.86 | 0 | 0 |
| 120 | Man | 1:18.86 | 0 | 0 |
| 122 | LobaDK | 1:18.87 | 0 | 0 |
| 123 | Neo-kun | 1:18.90 | 0 | 0 |
| 124 | Vegetable Broth | 1:18.91 | 0 | 0 |
| 124 | Spur | 1:18.91 | 0 | 0 |
| 126 | [BIT]SnepSpecialist | 1:18.93 | 0 | 0 |
| 127 | Delhjiko | 1:18.94 | 0 | 0 |
| 128 | codename_rb | 1:18.95 | 0 | 0 |
| 129 | Formidable | 1:18.99 | 0 | 0 |
| 130 | Nico | 1:19.00 | 0 | 0 |
| 130 | Other XIX | 1:19.00 | 0 | 0 |
| 130 | KABOOM | 1:19.00 | 0 | 0 |
| 133 | Simon Evo | 1:19.03 | 0 | 0 |
| 133 | Starhorder | 1:19.03 | 0 | 0 |
| 133 | LittleKittyArtemis | 1:19.03 | 0 | 0 |
| 133 | ErzoopaRTR | 1:19.03 | 0 | 0 |
| 137 | Fatal Destiny98 | 1:19.05 | 0 | 0 |
| 138 | Alopex | 1:19.06 | 0 | 0 |
| 139 | pugna's style | 1:19.08 | 0 | 0 |
| 140 | Quill | 1:19.09 | 0 | 0 |
| 140 | Zaturols | 1:19.09 | 0 | 0 |
| 142 | Sunzara | 1:19.12 | 0 | 0 |
| 143 | mrahc | 1:19.14 | 0 | 0 |
| 144 | Epsilon_Knight | 1:19.15 | 0 | 0 |
| 145 | Iron_Angmar | 1:19.16 | 0 | 0 |
| 145 | starshift | 1:19.16 | 0 | 0 |
| 147 | Sulfer-The-Cλt | 1:19.18 | 0 | 0 |
| 148 | 4onen | 1:19.19 | 0 | 0 |
| 149 | REHERC | 1:19.20 | 0 | 0 |
| 149 | SX64 | 1:19.20 | 0 | 0 |
| 151 | kriz_chan | 1:19.21 | 0 | 0 |
| 151 | Parasyte | 1:19.21 | 0 | 0 |
| 153 | CoJo12 | 1:19.22 | 0 | 0 |
| 153 | Jarminx | 1:19.22 | 0 | 0 |
| 155 | Inzarin | 1:19.24 | 0 | 0 |
| 156 | DefenderOfHyrule | 1:19.25 | 0 | 0 |
| 157 | RUDrew | 1:19.26 | 0 | 0 |
| 158 | HellHunter120 | 1:19.29 | 0 | 0 |
| 159 | Sev | 1:19.30 | 0 | 0 |
| 160 | Jacsn | 1:19.31 | 0 | 0 |
| 161 | Nick Elements | 1:19.32 | 0 | 0 |
| 162 | nrpsSword0 | 1:19.36 | 0 | 0 |
| 163 | mark9064 | 1:19.37 | 0 | 0 |
| 164 | Koros Antavo | 1:19.38 | 0 | 0 |
| 165 | Amarae | 1:19.39 | 0 | 0 |
| 166 | Ohnoitsmangofett | 1:19.41 | 0 | 0 |
| 166 | blur | 1:19.41 | 0 | 0 |
| 168 | Shroom | 1:19.42 | 0 | 0 |
| 168 | markschuurman1990 | 1:19.42 | 0 | 0 |
| 170 | Dimitri | 1:19.43 | 0 | 0 |
| 170 | Echo | 1:19.43 | 0 | 0 |
| 172 | Zector1114 | 1:19.45 | 0 | 0 |
| 173 | toniqe53 | 1:19.46 | 0 | 0 |
| 174 | Mud | 1:19.48 | 0 | 0 |
| 175 | RaiderZulu | 1:19.49 | 0 | 0 |
| 175 | Dutesao | 1:19.49 | 0 | 0 |
| 177 | darthbob555 | 1:19.50 | 0 | 0 |
| 178 | MCrekna1 | 1:19.54 | 0 | 0 |
| 179 | Djmaniac | 1:19.56 | 0 | 0 |
| 180 | Maxter Max | 1:19.62 | 0 | 0 |
| 181 | TheMasterDruid | 1:19.64 | 0 | 0 |
| 182 | ahtnos | 1:19.66 | 0 | 0 |
| 183 | EleventyB | 1:19.67 | 0 | 0 |
| 184 | Lucky the Milky | 1:19.68 | 0 | 0 |
| 185 | edc | 1:19.69 | 0 | 0 |
| 185 | Distance306 | 1:19.69 | 0 | 0 |
| 187 | Kypkai | 1:19.70 | 0 | 0 |
| 188 | Battle Banana Chris Handsom | 1:19.72 | 0 | 0 |
| 188 | Kypar | 1:19.72 | 0 | 0 |
| 190 | E0N | 1:19.76 | 0 | 0 |
| 191 | KnightBane | 1:19.83 | 0 | 0 |
| 192 | Griiig | 1:19.85 | 0 | 0 |
| 193 | Verity | 1:19.88 | 0 | 0 |
| 193 | HannahTTT | 1:19.88 | 0 | 0 |
| 195 | IzPaladin | 1:19.90 | 0 | 0 |
| 195 | XeroTheInfinite | 1:19.90 | 0 | 0 |
| 197 | JellyBunny | 1:19.91 | 0 | 0 |
| 198 | Samn | 1:19.94 | 0 | 0 |
| 198 | Frozen Bl00d | 1:19.94 | 0 | 0 |
| 200 | Dosilox | 1:19.95 | 0 | 0 |
| 201 | BuzZoiD | 1:19.96 | 0 | 0 |
| 202 | Jeni Wick | 1:20.00 | 0 | 0 |
| 203 | Jimmy Gibbs | 1:20.03 | 0 | 0 |
| 203 | Mimi | 1:20.03 | 0 | 0 |
| 205 | Xiooo | 1:20.06 | 0 | 0 |
| 206 | EndlessGaming | 1:20.07 | 0 | 0 |
| 206 | prsto | 1:20.07 | 0 | 0 |
| 206 | TajPilon | 1:20.07 | 0 | 0 |
| 209 | MyurrDurr | 1:20.08 | 0 | 0 |
| 210 | [OWL] Error404 | 1:20.15 | 0 | 0 |
| 211 | Spaceburger | 1:20.18 | 0 | 0 |
| 212 | DF4 | 1:20.20 | 0 | 0 |
| 213 | CrazyMaurice120 | 1:20.23 | 0 | 0 |
| 214 | Go, Dog. Go! | 1:20.33 | 0 | 0 |
| 215 | Rybot | 1:20.45 | 0 | 0 |
| 216 | hopupper | 1:20.46 | 0 | 0 |
| 216 | Brutus666 | 1:20.46 | 0 | 0 |
| 216 | Sunchipp Games | 1:20.46 | 0 | 0 |
| 219 | Varlok | 1:20.50 | 0 | 0 |
| 220 | Osbob | 1:20.53 | 0 | 0 |
| 221 | Deora II | 1:20.59 | 0 | 0 |
| 222 | Karakanov | 1:20.61 | 0 | 0 |
| 222 | Zerikki | 1:20.61 | 0 | 0 |
| 224 | Taivasjääkäri | 1:20.70 | 0 | 0 |
| 224 | Warriot | 1:20.70 | 0 | 0 |
| 226 | Shyylock | 1:20.74 | 0 | 0 |
| 227 | phfphefph | 1:20.79 | 0 | 0 |
| 228 | Ryuki | 1:20.83 | 0 | 0 |
| 228 | Onneyon | 1:20.83 | 0 | 0 |
| 228 | Bohemius | 1:20.83 | 0 | 0 |
| 228 | CrazyGamer742 | 1:20.83 | 0 | 0 |
| 232 | Therio | 1:20.84 | 0 | 0 |
| 233 | Ironside451 | 1:21.02 | 0 | 0 |
| 234 | Curious Fish | 1:21.07 | 0 | 0 |
| 234 | Keint | 1:21.07 | 0 | 0 |
| 236 | Enzyme Machine | 1:21.12 | 0 | 0 |
| 237 | delfiler | 1:21.22 | 0 | 0 |
| 238 | Strafe | 1:21.24 | 0 | 0 |
| 239 | [deleted] | 1:21.26 | 0 | 0 |
| 240 | Cinnamon ᓚᘏᗢ | 1:21.27 | 0 | 0 |
| 240 | [REDACTED] | 1:21.27 | 0 | 0 |
| 242 | Minty | 1:21.38 | 0 | 0 |
| 243 | Jezo | 1:21.46 | 0 | 0 |
| 244 | Puma D. Ace | 1:21.47 | 0 | 0 |
| 245 | OmenBot | 1:21.54 | 0 | 0 |
| 246 | Ams012101 | 1:21.61 | 0 | 0 |
| 247 | IllKIllU | 1:21.62 | 0 | 0 |
| 248 | JaBBerSmack | 1:21.68 | 0 | 0 |
| 249 | Grev "The Editor" | 1:21.80 | 0 | 0 |
| 250 | Alex Chosen | 1:21.82 | 0 | 0 |
| 251 | A Very Angy Opossum | 1:21.86 | 0 | 0 |
| 252 | Lancer | 1:21.89 | 0 | 0 |
| 253 | samson13 | 1:22.03 | 0 | 0 |
| 254 | SparraNova | 1:22.20 | 0 | 0 |
| 255 | Buck | 1:22.25 | 0 | 0 |
| 256 | shady3000 | 1:22.34 | 0 | 0 |
| 256 | endergecko1218 | 1:22.34 | 0 | 0 |
| 258 | JaimmyShine | 1:22.38 | 0 | 0 |
| 259 | doordragon | 1:22.47 | 0 | 0 |
| 260 | OneCent_HD | 1:22.48 | 0 | 0 |
| 261 | [STREET BREED] Lewis Madilton | 1:22.61 | 0 | 0 |
| 262 | TopBugBoi | 1:22.67 | 0 | 0 |
| 263 | DieselFace | 1:22.70 | 0 | 0 |
| 264 | Aluka Takumashiio | 1:22.88 | 0 | 0 |
| 265 | Hidden Squid | 1:23.14 | 0 | 0 |
| 266 | ShotgunReptile | 1:23.20 | 0 | 0 |
| 266 | Andreizovisky | 1:23.20 | 0 | 0 |
| 268 | SKOOKS | 1:23.30 | 0 | 0 |
| 269 | Penganator | 1:23.31 | 0 | 0 |
| 270 | Chronos | 1:23.35 | 0 | 0 |
| 271 | kinP inilletroT | 1:23.46 | 0 | 0 |
| 272 | JohnCorby | 1:23.56 | 0 | 0 |
| 273 | timawesomeness | 1:23.57 | 0 | 0 |
| 274 | EmeraldSlash | 1:23.61 | 0 | 0 |
| 274 | racing like a pisshorse | 1:23.61 | 0 | 0 |
| 276 | TinFoilMkIV | 1:23.73 | 0 | 0 |
| 277 | Ae1oURed | 1:23.74 | 0 | 0 |
| 278 | NoBody | 1:23.80 | 0 | 0 |
| 279 | Ninja Squirel | 1:24.02 | 0 | 0 |
| 280 | Saladus | 1:24.12 | 0 | 0 |
| 281 | jetknife | 1:24.21 | 0 | 0 |
| 282 | D-Z-U-E-T | 1:24.31 | 0 | 0 |
| 283 | Arikawa | 1:24.46 | 0 | 0 |
| 284 | < blank > | 1:24.56 | 0 | 0 |
| 285 | Vyneci | 1:24.60 | 0 | 0 |
| 285 | jonnywips | 1:24.60 | 0 | 0 |
| 287 | Sleve McDichael | 1:24.63 | 0 | 0 |
| 288 | Wolf Black | 1:24.68 | 0 | 0 |
| 289 | Shaka | 1:24.83 | 0 | 0 |
| 290 | twomanynumbers | 1:24.84 | 0 | 0 |
| 291 | Joseloran | 1:24.87 | 0 | 0 |
| 292 | Xan | 1:25.00 | 0 | 0 |
| 293 | Fleabag | 1:25.12 | 0 | 0 |
| 294 | Ryoteer | 1:25.21 | 0 | 0 |
| 295 | Sayukki | 1:25.23 | 0 | 0 |
| 296 | Edragon | 1:25.41 | 0 | 0 |
| 297 | Петрович | 1:25.45 | 0 | 0 |
| 298 | Dr. Diabetes | 1:25.46 | 0 | 0 |
| 298 | maSK | 1:25.46 | 0 | 0 |
| 300 | Barbecue Boy | 1:25.54 | 0 | 0 |
| 301 | Roarak | 1:25.55 | 0 | 0 |
| 302 | LucasZPN | 1:25.85 | 0 | 0 |
| 303 | Nickel | 1:25.86 | 0 | 0 |
| 304 | krakentoa | 1:25.92 | 0 | 0 |
| 305 | JustSolLotus | 1:26.23 | 0 | 0 |
| 306 | Viking_king | 1:26.25 | 0 | 0 |
| 307 | Canomi | 1:26.34 | 0 | 0 |
| 308 | Crimson Blood | 1:26.47 | 0 | 0 |
| 308 | Bistdocs | 1:26.47 | 0 | 0 |
| 310 | Hungolomghononoloughongous | 1:26.57 | 0 | 0 |
| 311 | Krogoth | 1:26.60 | 0 | 0 |
| 312 | Corecii | 1:26.94 | 0 | 0 |
| 313 | Rip | 1:27.03 | 0 | 0 |
| 314 | Renault Modus phase 2 | 1:27.08 | 0 | 0 |
| 315 | Swampy | 1:27.25 | 0 | 0 |
| 316 | BulletRain23 | 1:27.30 | 0 | 0 |
| 317 | Defiance_LLK | 1:27.32 | 0 | 0 |
| 318 | HyperNova | 1:27.36 | 0 | 0 |
| 319 | delicious Croutons | 1:27.41 | 0 | 0 |
| 320 | fischpferd | 1:27.43 | 0 | 0 |
| 321 | concil | 1:27.51 | 0 | 0 |
| 321 | scorpius | 1:27.51 | 0 | 0 |
| 323 | Adrimg_rider | 1:27.58 | 0 | 0 |
| 324 | Müllabholer | 1:27.61 | 0 | 0 |
| 325 | Booler | 1:27.64 | 0 | 0 |
| 326 | Hotride | 1:27.73 | 0 | 0 |
| 327 | Reus | 1:27.74 | 0 | 0 |
| 328 | Breno_SO | 1:27.83 | 0 | 0 |
| 329 | Greenfire DX | 1:27.87 | 0 | 0 |
| 330 | Elfiann | 1:27.94 | 0 | 0 |
| 331 | maess2ro | 1:27.96 | 0 | 0 |
| 332 | Epsilon | 1:28.23 | 0 | 0 |
| 333 | Zoey Blackwood | 1:28.26 | 0 | 0 |
| 334 | Arika Springfield | 1:28.28 | 0 | 0 |
| 335 | -v- Mantis | 1:28.32 | 0 | 0 |
| 336 | Redcost | 1:28.42 | 0 | 0 |
| 337 | Binko Bonko | 1:28.55 | 0 | 0 |
| 338 | sizifov | 1:28.84 | 0 | 0 |
| 339 | MacGuffin_ | 1:28.85 | 0 | 0 |
| 340 | Wildclaw | 1:28.93 | 0 | 0 |
| 341 | Awesomedan | 1:28.99 | 0 | 0 |
| 342 | Geograde | 1:29.01 | 0 | 0 |
| 342 | EnderKill98 | 1:29.01 | 0 | 0 |
| 344 | Benji | 1:29.35 | 0 | 0 |
| 345 | XDrakkir | 1:29.38 | 0 | 0 |
| 346 | Skrigar | 1:29.41 | 0 | 0 |
| 347 | Dorey348 | 1:29.42 | 0 | 0 |
| 348 | BrandonK-TN | 1:29.46 | 0 | 0 |
| 349 | Figs | 1:29.51 | 0 | 0 |
| 350 | Vaporwave Bepsi | 1:29.53 | 0 | 0 |
| 351 | Irri | 1:29.83 | 0 | 0 |
| 352 | Orion | 1:29.91 | 0 | 0 |
| 352 | Suspect | 1:29.91 | 0 | 0 |
| 354 | GoldenKiryu | 1:29.92 | 0 | 0 |
| 355 | 〔Es〕 | 1:29.96 | 0 | 0 |
| 356 | TheEPROM9 LaTeX | 1:30.05 | 0 | 0 |
| 357 | WiteNite | 1:30.28 | 0 | 0 |
| 357 | Barry snorevitch | 1:30.28 | 0 | 0 |
| 359 | Paplo | 1:30.37 | 0 | 0 |
| 360 | DROCHEPOLK | 1:30.45 | 0 | 0 |
| 361 | skuzzzy | 1:30.50 | 0 | 0 |
| 362 | Readek | 1:30.51 | 0 | 0 |
| 362 | Sunnydan | 1:30.51 | 0 | 0 |
| 364 | Cyxxus | 1:30.66 | 0 | 0 |
| 365 | bacon | 1:30.71 | 0 | 0 |
| 366 | Wolf | 1:30.75 | 0 | 0 |
| 367 | Photyx | 1:30.84 | 0 | 0 |
| 368 | Neoblastz | 1:30.97 | 0 | 0 |
| 369 | NK - Néko | 1:31.00 | 0 | 0 |
| 370 | Ruudy~Pandy | 1:31.02 | 0 | 0 |
| 371 | Torja! | 1:31.03 | 0 | 0 |
| 372 | Mellow Manta | 1:31.12 | 0 | 0 |
| 373 | Plasmawario | 1:31.13 | 0 | 0 |
| 374 | russ117 | 1:31.31 | 0 | 0 |
| 375 | Razgriez | 1:31.34 | 0 | 0 |
| 376 | danny1234331 | 1:31.56 | 0 | 0 |
| 376 | MasterJedi2014 | 1:31.56 | 0 | 0 |
| 378 | cheif22 | 1:31.68 | 0 | 0 |
| 379 | 𐂃 | 1:31.77 | 0 | 0 |
| 380 | Ròókie Red | 1:31.80 | 0 | 0 |
| 381 | -Ω- | 1:31.81 | 0 | 0 |
| 382 | Dragonoïde | 1:31.99 | 0 | 0 |
| 383 | maple | 1:32.08 | 0 | 0 |
| 384 | Dorphan | 1:32.16 | 0 | 0 |
| 385 | Siyzerix | 1:32.21 | 0 | 0 |
| 386 | Chase | 1:32.23 | 0 | 0 |
| 387 | AnalBreacher | 1:32.35 | 0 | 0 |
| 388 | Cosmobibliothèque | 1:32.43 | 0 | 0 |
| 389 | Axoloton | 1:32.45 | 0 | 0 |
| 390 | Az | 1:32.46 | 0 | 0 |
| 391 | SmolSucc | 1:32.53 | 0 | 0 |
| 392 | Retromancer | 1:32.64 | 0 | 0 |
| 393 | puca | 1:32.65 | 0 | 0 |
| 394 | FabioTheTurtle | 1:32.80 | 0 | 0 |
| 395 | Awmax | 1:32.92 | 0 | 0 |
| 396 | juvo | 1:33.06 | 0 | 0 |
| 397 | theninjacat799 | 1:33.10 | 0 | 0 |
| 398 | Retrip | 1:33.16 | 0 | 0 |
| 399 | Bun Bun | 1:33.18 | 0 | 0 |
| 400 | Shyverin | 1:33.21 | 0 | 0 |
| 401 | That One Panda | 1:33.29 | 0 | 0 |
| 402 | Diabetis4life | 1:33.37 | 0 | 0 |
| 403 | Dig | 1:33.39 | 0 | 0 |
| 404 | siko | 1:33.50 | 0 | 0 |
| 405 | nowayy | 1:33.58 | 0 | 0 |
| 406 | Bezzernator | 1:33.63 | 0 | 0 |
| 407 | HJQLF | 1:33.68 | 0 | 0 |
| 408 | Hayden | 1:33.79 | 0 | 0 |
| 409 | menkaru | 1:33.82 | 0 | 0 |
| 410 | Metromari | 1:34.02 | 0 | 0 |
| 411 | Aastran | 1:34.06 | 0 | 0 |
| 412 | artifichell | 1:34.07 | 0 | 0 |
| 413 | TG300 | 1:34.12 | 0 | 0 |
| 414 | Slusher | 1:34.15 | 0 | 0 |
| 415 | Kamikaze901 | 1:34.20 | 0 | 0 |
| 416 | Chegg | 1:34.21 | 0 | 0 |
| 417 | Spotfire | 1:34.22 | 0 | 0 |
| 418 | Saujii2 | 1:34.23 | 0 | 0 |
| 419 | An Innocuous Chef | 1:34.34 | 0 | 0 |
| 420 | Foul Tarnished | 1:34.37 | 0 | 0 |
| 421 | CS | 1:34.42 | 0 | 0 |
| 422 | Hars | 1:34.44 | 0 | 0 |
| 423 | Ramalis | 1:34.57 | 0 | 0 |
| 424 | Muggestutz | 1:34.67 | 0 | 0 |
| 425 | Hex | 1:34.76 | 0 | 0 |
| 426 | Makmosel | 1:34.86 | 0 | 0 |
| 426 | [RC] | 1:34.86 | 0 | 0 |
| 428 | The Brightest Star | 1:34.98 | 0 | 0 |
| 429 | Waymint | 1:35.05 | 0 | 0 |
| 430 | UncookedPasta | 1:35.16 | 0 | 0 |
| 431 | O' The Iron E | 1:35.21 | 0 | 0 |
| 432 | >>KIO<< | 1:35.39 | 0 | 0 |
| 432 | Warkin Iskander Volselli | 1:35.39 | 0 | 0 |
| 434 | ThadeusBK | 1:35.40 | 0 | 0 |
| 435 | Maus | 1:35.44 | 0 | 0 |
| 436 | 54mm7 | 1:35.47 | 0 | 0 |
| 437 | Ashton_bro | 1:35.73 | 0 | 0 |
| 438 | Maszo Pok | 1:35.89 | 0 | 0 |
| 439 | Gemini | 1:36.04 | 0 | 0 |
| 440 | Huhngeheuer | 1:36.25 | 0 | 0 |
| 441 | Mr. Doggy | 1:36.34 | 0 | 0 |
| 442 | SupaSnor | 1:36.37 | 0 | 0 |
| 443 | JDthe3rd | 1:36.43 | 0 | 0 |
| 444 | tigerchef123 | 1:36.44 | 0 | 0 |
| 445 | Matthew Losion | 1:36.48 | 0 | 0 |
| 446 | < blank > | 1:36.57 | 0 | 0 |
| 447 | Mar_Veloz | 1:36.59 | 0 | 0 |
| 448 | CoffeeGremlin | 1:36.61 | 0 | 0 |
| 449 | JJ the housecat | 1:36.64 | 0 | 0 |
| 450 | Pachas | 1:36.70 | 0 | 0 |
| 451 | ワシねこ | 1:36.88 | 0 | 0 |
| 452 | Jercasem | 1:36.96 | 0 | 0 |
| 453 | TechNoir | 1:37.07 | 0 | 0 |
| 454 | balomy | 1:37.28 | 0 | 0 |
| 455 | Tesselode | 1:37.41 | 0 | 0 |
| 456 | R1ow1ls | 1:37.43 | 0 | 0 |
| 457 | JeffTheBruh | 1:37.50 | 0 | 0 |
| 458 | E:/Δ/Delta | 1:37.53 | 0 | 0 |
| 459 | Marcus | 1:37.71 | 0 | 0 |
| 460 | K-NiGHT | 1:37.77 | 0 | 0 |
| 461 | zombieassaultman | 1:37.84 | 0 | 0 |
| 462 | Splat | 1:37.88 | 0 | 0 |
| 463 | Azzmurr | 1:37.96 | 0 | 0 |
| 464 | Zoig | 1:38.10 | 0 | 0 |
| 465 | Defect | 1:38.11 | 0 | 0 |
| 466 | Blade | 1:38.19 | 0 | 0 |
| 467 | Voltaic | 1:38.34 | 0 | 0 |
| 468 | Maj. Pegger | 1:38.74 | 0 | 0 |
| 469 | nedoma | 1:38.82 | 0 | 0 |
| 470 | Byaku198 | 1:38.83 | 0 | 0 |
| 471 | the Bear of the Web | 1:38.84 | 0 | 0 |
| 472 | Sandwich | 1:38.91 | 0 | 0 |
| 473 | Hawaiano | 1:39.06 | 0 | 0 |
| 473 | Seshiruseth | 1:39.06 | 0 | 0 |
| 475 | Pelkri | 1:39.18 | 0 | 0 |
| 476 | Prodigy12 | 1:39.23 | 0 | 0 |
| 477 | kildert5 | 1:39.32 | 0 | 0 |
| 478 | 20GoldPieces | 1:39.33 | 0 | 0 |
| 479 | Glypse | 1:39.96 | 0 | 0 |
| 480 | Big Tort | 1:40.14 | 0 | 0 |
| 480 | Me an intellectual | 1:40.14 | 0 | 0 |
| 482 | Gragzone | 1:40.48 | 0 | 0 |
| 483 | DamnedDeyvid | 1:40.56 | 0 | 0 |
| 484 | D0HERRITT | 1:40.70 | 0 | 0 |
| 485 | Madeen | 1:40.72 | 0 | 0 |
| 486 | Glizzy Gobbler | 1:40.89 | 0 | 0 |
| 487 | vorador2 | 1:40.98 | 0 | 0 |
| 487 | Opprop | 1:40.98 | 0 | 0 |
| 489 | Drakael | 1:41.15 | 0 | 0 |
| 490 | Galaxic | 1:41.20 | 0 | 0 |
| 491 | Eagl3 | 1:41.24 | 0 | 0 |
| 492 | Fushiggy | 1:41.62 | 0 | 0 |
| 493 | Squeeeeeeeeps | 1:41.72 | 0 | 0 |
| 493 | [deleted] | 1:41.72 | 0 | 0 |
| 495 | Aeroslut | 1:41.89 | 0 | 0 |
| 496 | bmrc97 | 1:42.05 | 0 | 0 |
| 497 | Manatee | 1:42.06 | 0 | 0 |
| 497 | Indy1984 | 1:42.06 | 0 | 0 |
| 499 | Eleven27 | 1:42.16 | 0 | 0 |
| 500 | GyrokFalconer | 1:42.22 | 0 | 0 |
| 501 | Crespojazzman | 1:42.27 | 0 | 0 |
| 502 | Dropkick | 1:42.60 | 0 | 0 |
| 503 | Nakoju | 1:42.65 | 0 | 0 |
| 504 | Breezy™ | 1:42.69 | 0 | 0 |
| 505 | Aªrsern | 1:42.87 | 0 | 0 |
| 506 | Rombommind | 1:43.06 | 0 | 0 |
| 507 | Prof. Pinwheel | 1:43.08 | 0 | 0 |
| 508 | gwenaël | 1:43.21 | 0 | 0 |
| 509 | Bulka | 1:43.54 | 0 | 0 |
| 510 | shi+0rty | 1:43.58 | 0 | 0 |
| 511 | RowToney | 1:43.60 | 0 | 0 |
| 512 | KWP | 1:43.78 | 0 | 0 |
| 513 | professional | 1:43.79 | 0 | 0 |
| 514 | Nick | 1:43.85 | 0 | 0 |
| 515 | killerbrute14 | 1:43.89 | 0 | 0 |
| 516 | Lémohn | 1:44.11 | 0 | 0 |
| 517 | Grabuge | 1:44.81 | 0 | 0 |
| 518 | Raynland McNuggets | 1:45.23 | 0 | 0 |
| 519 | CJ | 1:45.29 | 0 | 0 |
| 520 | JustinQM | 1:45.39 | 0 | 0 |
| 521 | Frinhaal | 1:45.44 | 0 | 0 |
| 522 | Norz-Öril'Kern | 1:45.46 | 0 | 0 |
| 523 | ƮƎȠ ҜꞦƬʘꝀ | 1:45.48 | 0 | 0 |
| 524 | Todd Baxter | 1:45.53 | 0 | 0 |
| 525 | EmkoCZ | 1:45.73 | 0 | 0 |
| 526 | Swayo | 1:45.86 | 0 | 0 |
| 527 | Rei | 1:45.99 | 0 | 0 |
| 528 | 2ndBillingCycle | 1:46.10 | 0 | 0 |
| 529 | Prism Refract | 1:46.11 | 0 | 0 |
| 530 | jcrew | 1:46.12 | 0 | 0 |
| 531 | Bilbobangboom | 1:46.31 | 0 | 0 |
| 532 | Slim Fandango | 1:46.35 | 0 | 0 |
| 533 | Ktee | 1:46.39 | 0 | 0 |
| 534 | TS_Mind_Swept | 1:46.57 | 0 | 0 |
| 535 | DemoKnight Or Busty | 1:46.59 | 0 | 0 |
| 536 | Karnalia | 1:46.64 | 0 | 0 |
| 537 | TheDukeOfTaco | 1:46.72 | 0 | 0 |
| 538 | Myha | 1:46.90 | 0 | 0 |
| 538 | KingDemonDonut | 1:46.90 | 0 | 0 |
| 540 | Jukey J | 1:46.91 | 0 | 0 |
| 541 | вертуhi | 1:47.13 | 0 | 0 |
| 542 | Blueberry Muffin Massacre | 1:47.34 | 0 | 0 |
| 543 | Ruinoterapevt | 1:47.66 | 0 | 0 |
| 544 | ルイーズ | 1:47.86 | 0 | 0 |
| 545 | Nova | 1:48.11 | 0 | 0 |
| 546 | alvar902 | 1:48.13 | 0 | 0 |
| 547 | cyan | 1:48.24 | 0 | 0 |
| 548 | Nenu | 1:48.38 | 0 | 0 |
| 549 | Blahaj Blast | 1:48.58 | 0 | 0 |
| 550 | Gjurb | 1:48.59 | 0 | 0 |
| 551 | Dany | 1:48.64 | 0 | 0 |
| 551 | Abimn Orrsty | 1:48.64 | 0 | 0 |
| 553 | pox | 1:49.02 | 0 | 0 |
| 554 | R1PP | 1:49.12 | 0 | 0 |
| 555 | Grav | 1:49.28 | 0 | 0 |
| 556 | Phoenixstorm | 1:49.46 | 0 | 0 |
| 557 | D2C | Chrisc02 | 1:49.53 | 0 | 0 |
| 558 | Old Bastard | 1:49.71 | 0 | 0 |
| 558 | Domino | 1:49.71 | 0 | 0 |
| 560 | Dylan | 1:49.75 | 0 | 0 |
| 561 | Puro | 1:49.77 | 0 | 0 |
| 562 | Trailsmix | 1:49.82 | 0 | 0 |
| 563 | CrimsonFox98 | 1:50.25 | 0 | 0 |
| 564 | Pig Tattoo | 1:50.46 | 0 | 0 |
| 565 | Spagghettip | 1:50.56 | 0 | 0 |
| 566 | Sugoi-desu (⊙‿⊙✿) | 1:50.68 | 0 | 0 |
| 566 | Cv23DeadlyRain | 1:50.68 | 0 | 0 |
| 568 | jjsamachama | 1:50.93 | 0 | 0 |
| 569 | Taelu | 1:50.96 | 0 | 0 |
| 570 | Aureliayk | 1:51.00 | 0 | 0 |
| 571 | FraZer | 1:51.07 | 0 | 0 |
| 571 | JustB4DW0LF | 1:51.07 | 0 | 0 |
| 573 | Debleck | 1:51.29 | 0 | 0 |
| 574 | Oblivious | 1:51.70 | 0 | 0 |
| 575 | ThundahV | 1:51.80 | 0 | 0 |
| 576 | Bubba | 1:51.83 | 0 | 0 |
| 577 | Captain Qualms | 1:51.97 | 0 | 0 |
| 578 | do it the philZstyle | 1:52.24 | 0 | 0 |
| 579 | Lliane | 1:52.26 | 0 | 0 |
| 580 | Сосёна | 1:52.39 | 0 | 0 |
| 581 | Mochi | 1:52.55 | 0 | 0 |
| 582 | Jester Thomas | 1:52.64 | 0 | 0 |
| 583 | Bios | 1:52.66 | 0 | 0 |
| 584 | Michael_MaxPower | 1:52.71 | 0 | 0 |
| 585 | Artifact | 1:52.72 | 0 | 0 |
| 586 | Pato | 1:52.80 | 0 | 0 |
| 587 | Echor | 1:53.01 | 0 | 0 |
| 588 | Dragonpntm | 1:53.12 | 0 | 0 |
| 589 | FifteenBread | 1:53.16 | 0 | 0 |
| 590 | WolfBoi | 1:53.29 | 0 | 0 |
| 591 | Mentecapto- | 1:53.37 | 0 | 0 |
| 592 | Blushy Wushy | 1:53.56 | 0 | 0 |
| 593 | Traetors | 1:53.57 | 0 | 0 |
| 594 | nope | 1:53.82 | 0 | 0 |
| 595 | Dubblr | 1:53.84 | 0 | 0 |
| 596 | Spearmint | 1:53.97 | 0 | 0 |
| 597 | Early Bird | 1:53.99 | 0 | 0 |
| 598 | Zecrus | 1:54.67 | 0 | 0 |
| 599 | Satoshi | 1:54.90 | 0 | 0 |
| 600 | Hightree | 1:55.18 | 0 | 0 |
| 601 | EzraW118 | 1:55.40 | 0 | 0 |
| 602 | Scarlet | 1:55.48 | 0 | 0 |
| 603 | SynfulShapeshifter | 1:55.57 | 0 | 0 |
| 604 | xanthousphoenix | 1:55.98 | 0 | 0 |
| 605 | trojan | 1:56.02 | 0 | 0 |
| 606 | iamelementalsword | 1:56.06 | 0 | 0 |
| 607 | StarTraceTM | 1:56.11 | 0 | 0 |
| 608 | Pingu | 1:56.51 | 0 | 0 |
| 609 | --TuttiFrutti-- | 1:56.64 | 0 | 0 |
| 610 | pedroygormelo | 1:56.86 | 0 | 0 |
| 611 | Schleck | 1:57.04 | 0 | 0 |
| 612 | Vencer | 1:57.40 | 0 | 0 |
| 613 | pg9000 | 1:57.59 | 0 | 0 |
| 614 | 猫かわいい | 1:57.67 | 0 | 0 |
| 615 | Zoferos | 1:57.68 | 0 | 0 |
| 616 | Uranos | 1:58.03 | 0 | 0 |
| 617 | Shadiest | 1:58.04 | 0 | 0 |
| 618 | JestersFear | 1:58.29 | 0 | 0 |
| 619 | Oraz_17 | 1:58.53 | 0 | 0 |
| 620 | GetEmOtterHere | 1:58.64 | 0 | 0 |
| 621 | Meisolus | 1:59.09 | 0 | 0 |
| 622 | Шоколадка:) | 1:59.45 | 0 | 0 |
| 623 | Archiver | 1:59.67 | 0 | 0 |
| 624 | Giant | 1:59.85 | 0 | 0 |
| 625 | Slender19rus | 2:00.03 | 0 | 0 |
| 626 | Gnose | 2:00.12 | 0 | 0 |
| 627 | Tsuchi | 2:00.13 | 0 | 0 |
| 628 | Pirko | 2:00.19 | 0 | 0 |
| 629 | DvN | 2:00.41 | 0 | 0 |
| 630 | Lethologica7 | 2:00.49 | 0 | 0 |
| 631 | Armesio | 2:00.84 | 0 | 0 |
| 632 | Nurgberger | 2:00.89 | 0 | 0 |
| 633 | PuReCha0s | 2:00.93 | 0 | 0 |
| 634 | LemonIsland | 2:01.08 | 0 | 0 |
| 635 | generally incompetent | 2:01.10 | 0 | 0 |
| 636 | Cerberus DCXVI | 2:01.14 | 0 | 0 |
| 637 | Nokillings | 2:01.68 | 0 | 0 |
| 638 | Sora | 2:01.76 | 0 | 0 |
| 639 | Shrapnel Blatner | 2:01.88 | 0 | 0 |
| 640 | Skrall' | 2:02.06 | 0 | 0 |
| 641 | GekoKid | 2:02.34 | 0 | 0 |
| 642 | Calcarious | 2:02.65 | 0 | 0 |
| 643 | Citrus | 2:02.72 | 0 | 0 |
| 644 | garg | 2:02.93 | 0 | 0 |
| 645 | Idranoid | 2:03.26 | 0 | 0 |
| 646 | Чаечек ☂ | 2:03.30 | 0 | 0 |
| 647 | Achiro | 2:03.70 | 0 | 0 |
| 648 | Coconut | 2:03.72 | 0 | 0 |
| 649 | Conbron ^-^ | 2:04.01 | 0 | 0 |
| 650 | Finch | 2:04.22 | 0 | 0 |
| 651 | egg | 2:04.30 | 0 | 0 |
| 652 | pie | 2:04.35 | 0 | 0 |
| 653 | Shifted | 2:04.39 | 0 | 0 |
| 654 | Crunchy Salad | 2:04.59 | 0 | 0 |
| 655 | Octa | 2:04.65 | 0 | 0 |
| 656 | trumpetkid14 | 2:04.91 | 0 | 0 |
| 656 | halohotrod | 2:04.91 | 0 | 0 |
| 658 | rocmanx654 | 2:05.02 | 0 | 0 |
| 659 | Squishy | 2:05.11 | 0 | 0 |
| 660 | Bullet074 | 2:05.53 | 0 | 0 |
| 661 | MOCOCHINCHOL | 2:05.63 | 0 | 0 |
| 662 | Adri | 2:05.78 | 0 | 0 |
| 663 | schwitzer | 2:05.99 | 0 | 0 |
| 664 | ShadowRipperhr | 2:06.10 | 0 | 0 |
| 665 | trooper | 2:06.57 | 0 | 0 |
| 666 | Blue/Rae/ | 2:07.05 | 0 | 0 |
| 667 | Siber_Freak | 2:07.10 | 0 | 0 |
| 668 | Amniotus | 2:07.42 | 0 | 0 |
| 669 | Dyltra | 2:07.57 | 0 | 0 |
| 670 | Snerlop | 2:08.58 | 0 | 0 |
| 671 | Meda | 2:08.64 | 0 | 0 |
| 671 | BrrGrrmensch | 2:08.64 | 0 | 0 |
| 673 | Dillonb321 | 2:08.69 | 0 | 0 |
| 674 | Zeno | 2:08.94 | 0 | 0 |
| 675 | Ota | 2:09.04 | 0 | 0 |
| 676 | eeah | 2:09.24 | 0 | 0 |
| 677 | Simon911 | 2:09.26 | 0 | 0 |
| 678 | Review | 2:09.45 | 0 | 0 |
| 679 | streetdonuts | 2:09.47 | 0 | 0 |
| 680 | dhampirassassin | 2:09.50 | 0 | 0 |
| 681 | Yknr(Lia) | 2:09.61 | 0 | 0 |
| 682 | HandiCaptain | 2:09.80 | 0 | 0 |
| 683 | Ennui Videogame Nerd | 2:09.85 | 0 | 0 |
| 684 | Gandalf the Moist | 2:10.03 | 0 | 0 |
| 685 | Sogg Tost | 2:10.32 | 0 | 0 |
| 686 | Vanathan | 2:10.49 | 0 | 0 |
| 687 | neurofox | 2:10.77 | 0 | 0 |
| 688 | 4P | 2:11.16 | 0 | 0 |
| 689 | Aristeu | 2:11.62 | 0 | 0 |
| 690 | throbbing_fish | 2:12.05 | 0 | 0 |
| 691 | Nanohm The Protogen | 2:12.15 | 0 | 0 |
| 692 | LelouchXV3 | 2:12.56 | 0 | 0 |
| 693 | Elfentuna | 2:12.60 | 0 | 0 |
| 694 | hoppersthree | 2:12.79 | 0 | 0 |
| 695 | autistic pringle | 2:13.22 | 0 | 0 |
| 696 | Laser Joe | 2:13.49 | 0 | 0 |
| 697 | Yushu | 2:13.78 | 0 | 0 |
| 698 | Emazeco | 2:13.82 | 0 | 0 |
| 699 | Felynka | 2:14.32 | 0 | 0 |
| 700 | NeØs | 2:14.48 | 0 | 0 |
| 701 | GAMEMASTER-THX | 2:14.52 | 0 | 0 |
| 702 | 7h a z ze | 2:14.89 | 0 | 0 |
| 703 | Tuli | 2:15.00 | 0 | 0 |
| 704 | Zwetschgadatschi | 2:15.12 | 0 | 0 |
| 705 | Chadzillas Big Weekend Out | 2:15.14 | 0 | 0 |
| 706 | Lilith<3 | 2:15.15 | 0 | 0 |
| 707 | Pristine | 2:15.50 | 0 | 0 |
| 708 | The Unusual Suspect | 2:15.79 | 0 | 0 |
| 709 | Mister JT | 2:15.84 | 0 | 0 |
| 710 | Hanimani2 | 2:15.86 | 0 | 0 |
| 711 | Dormanius | 2:15.96 | 0 | 0 |
| 712 | StrongBad | 2:16.10 | 0 | 0 |
| 713 | Duke Swampy | 2:16.17 | 0 | 0 |
| 714 | Srigby | 2:16.57 | 0 | 0 |
| 715 | Swedes | 2:16.79 | 0 | 0 |
| 716 | Momo McWaddle | 2:16.80 | 0 | 0 |
| 717 | GamerBojac | 2:16.98 | 0 | 0 |
| 718 | Gasleak Gamer | 2:17.15 | 0 | 0 |
| 719 | Ayre | 2:17.37 | 0 | 0 |
| 720 | Soraho | 2:17.78 | 0 | 0 |
| 721 | Riolite | 2:18.03 | 0 | 0 |
| 722 | Kàgèzashi | 2:18.09 | 0 | 0 |
| 723 | Protoarc | 2:18.49 | 0 | 0 |
| 724 | Menelwen | 2:19.02 | 0 | 0 |
| 725 | wariorLV | 2:19.26 | 0 | 0 |
| 726 | T H O N K | 2:19.42 | 0 | 0 |
| 727 | Gamerguy48 | 2:19.45 | 0 | 0 |
| 728 | Heiji | 2:19.61 | 0 | 0 |
| 729 | Ay Scruh Jum Lord | 2:19.68 | 0 | 0 |
| 729 | Diamond | 2:19.68 | 0 | 0 |
| 731 | Paganar | 2:20.44 | 0 | 0 |
| 732 | Thing 1 | 2:20.71 | 0 | 0 |
| 733 | Kwmart | 2:20.81 | 0 | 0 |
| 734 | Wulg | 2:20.92 | 0 | 0 |
| 735 | Da Monke | 2:21.02 | 0 | 0 |
| 736 | FrostCorp | 2:21.07 | 0 | 0 |
| 737 | Mathias | 2:21.12 | 0 | 0 |
| 738 | Sayahochi | 2:22.68 | 0 | 0 |
| 739 | water | 2:23.17 | 0 | 0 |
| 740 | Alexkurts | 2:24.29 | 0 | 0 |
| 741 | Ganzer Watch | 2:24.67 | 0 | 0 |
| 742 | Chrestomanci09 | 2:24.93 | 0 | 0 |
| 743 | lupuscreed | 2:25.94 | 0 | 0 |
| 744 | LanyC | 2:26.79 | 0 | 0 |
| 745 | Okay. | 2:26.82 | 0 | 0 |
| 746 | Jehuty | 2:27.62 | 0 | 0 |
| 747 | Lil O.D. | 2:27.63 | 0 | 0 |
| 748 | Finmorr | 2:27.83 | 0 | 0 |
| 749 | UNSCSayMyName | 2:27.90 | 0 | 0 |
| 750 | Owem | 2:28.23 | 0 | 0 |
| 751 | Kert Wernie | 2:28.54 | 0 | 0 |
| 752 | Doki | 2:28.72 | 0 | 0 |
| 753 | The Salt Is REAL | 2:28.81 | 0 | 0 |
| 754 | StrikeS1S. | 2:28.93 | 0 | 0 |
| 755 | VentureOasis | 2:28.99 | 0 | 0 |
| 756 | [BIT] Iroden | 2:29.03 | 0 | 0 |
| 757 | BlueTitsMcFurryDream | 2:29.09 | 0 | 0 |
| 758 | Apocalyptic Bunny | 2:29.27 | 0 | 0 |
| 759 | Mosquito_FPV | 2:29.31 | 0 | 0 |
| 760 | Phaserlight | 2:29.49 | 0 | 0 |
| 761 | NIR3D | 2:29.54 | 0 | 0 |
| 762 | Jack Attack | 2:29.95 | 0 | 0 |
| 763 | -Chaska- | 2:31.00 | 0 | 0 |
| 764 | Mazdavagabundi | 2:31.26 | 0 | 0 |
| 765 | Pipsibean | 2:31.28 | 0 | 0 |
| 766 | TheEdIsNotAmused | 2:31.33 | 0 | 0 |
| 767 | The_Impiersonator | 2:32.03 | 0 | 0 |
| 768 | ImFireGod | 2:32.06 | 0 | 0 |
| 769 | GAMERGGGIIIIIIIIIRRRRRRRLLLLLLLL | 2:32.87 | 0 | 0 |
| 770 | Mr_D3w | 2:32.98 | 0 | 0 |
| 771 | Mr.Spyro | 2:33.19 | 0 | 0 |
| 772 | BryhanFine | 2:33.61 | 0 | 0 |
| 773 | Crown Clown | 2:33.69 | 0 | 0 |
| 774 | [STMHPY] defragmentized | 2:33.80 | 0 | 0 |
| 775 | McMo64 | 2:34.35 | 0 | 0 |
| 776 | Medjed | 2:34.73 | 0 | 0 |
| 777 | SaltedFork | 2:34.89 | 0 | 0 |
| 778 | yuri gagarin's creamy interior | 2:34.94 | 0 | 0 |
| 779 | Blaze | 2:36.74 | 0 | 0 |
| 780 | Combustaoki | 2:36.95 | 0 | 0 |
| 781 | Sibsen | 2:37.11 | 0 | 0 |
| 782 | 黒 Crow | 2:37.62 | 0 | 0 |
| 783 | Pond_King | 2:38.66 | 0 | 0 |
| 784 | thepizzaman2013 | 2:39.44 | 0 | 0 |
| 785 | croc | 2:39.51 | 0 | 0 |
| 786 | Zen | 2:40.12 | 0 | 0 |
| 787 | Trovador Zarolho | 2:40.14 | 0 | 0 |
| 788 | ChocoFrito | 2:40.29 | 0 | 0 |
| 789 | Aqui' | 2:40.52 | 0 | 0 |
| 790 | o̸P̸i̵i̷c̵h̵ | 2:40.91 | 0 | 0 |
| 791 | -Onyx-Lich | 2:41.20 | 0 | 0 |
| 792 | AlveKatt | 2:42.52 | 0 | 0 |
| 793 | Antoino | 2:43.66 | 0 | 0 |
| 794 | Seniorpopo | 2:44.29 | 0 | 0 |
| 795 | Sandi_Witch | 2:44.64 | 0 | 0 |
| 796 | Eternal_Dreamer_23 | 2:44.78 | 0 | 0 |
| 797 | Mr. punctuality | 2:44.87 | 0 | 0 |
| 798 | J4M3Z34 | 2:44.95 | 0 | 0 |
| 799 | Loopsty | 2:45.74 | 0 | 0 |
| 800 | Super Small Man | 2:45.88 | 0 | 0 |
| 801 | SillySean | 2:45.97 | 0 | 0 |
| 802 | Faygo D. Bullchit | 2:46.67 | 0 | 0 |
| 803 | CaleB | 2:46.87 | 0 | 0 |
| 804 | sangriia. | 2:47.11 | 0 | 0 |
| 805 | weeb | 2:47.68 | 0 | 0 |
| 806 | Stranth | 2:47.95 | 0 | 0 |
| 807 | 2002 Hyundai Getz | 2:48.12 | 0 | 0 |
| 808 | Drago | 2:48.91 | 0 | 0 |
| 809 | Sgt_Snowcone | 2:49.21 | 0 | 0 |
| 810 | Amored Dragon | 2:49.46 | 0 | 0 |
| 811 | Powerpoint | 2:49.75 | 0 | 0 |
| 812 | AX | 2:49.79 | 0 | 0 |
| 813 | Unlight369 | 2:51.41 | 0 | 0 |
| 814 | Rhombus | 2:51.43 | 0 | 0 |
| 815 | IanRosk | 2:51.45 | 0 | 0 |
| 816 | Garstine | 2:51.88 | 0 | 0 |
| 817 | Sukiadoramu | 2:51.89 | 0 | 0 |
| 818 | Retromist | 2:51.90 | 0 | 0 |
| 819 | Endofotziges Retikulum | 2:52.38 | 0 | 0 |
| 820 | olivqe | 2:52.63 | 0 | 0 |
| 821 | Ben | 2:53.58 | 0 | 0 |
| 822 | TromaFan4Life | 2:53.73 | 0 | 0 |
| 823 | Hydrochoerus | 2:53.77 | 0 | 0 |
| 824 | DevilsArmada | 2:54.36 | 0 | 0 |
| 825 | AFD chinakomba | 2:55.12 | 0 | 0 |
| 826 | ultradraco651 | 2:55.14 | 0 | 0 |
| 827 | Sentynel | 2:56.14 | 0 | 0 |
| 828 | BoiledBoy | 2:57.08 | 0 | 0 |
| 829 | MrKoroLeVrai | 2:57.09 | 0 | 0 |
| 830 | Scrat | 2:57.14 | 0 | 0 |
| 831 | sticc | 2:58.22 | 0 | 0 |
| 832 | Schrödinger's Dong | 2:59.49 | 0 | 0 |
| 833 | Grimhelm Thunderblood | 3:01.18 | 0 | 0 |
| 834 | Marhoxo | 3:03.35 | 0 | 0 |
| 835 | Dragonboy Agenda | 3:03.37 | 0 | 0 |
| 836 | NegaTron Invincible | 3:03.60 | 0 | 0 |
| 837 | Renota | 3:03.99 | 0 | 0 |
| 838 | Jaffo | 3:04.73 | 0 | 0 |
| 839 | ĝ ε † $ u ĝ α | 3:05.28 | 0 | 0 |
| 840 | Winter Lily | 3:05.60 | 0 | 0 |
| 841 | Trollgamer208 | 3:06.94 | 0 | 0 |
| 842 | Gary Smith | 3:07.44 | 0 | 0 |
| 843 | Canon PIXMA Inkjet Printer | 3:07.79 | 0 | 0 |
| 844 | Apocriopath | 3:08.06 | 0 | 0 |
| 845 | Ammo37 | 3:08.36 | 0 | 0 |
| 846 | wololo priest | 3:08.49 | 0 | 0 |
| 847 | [BIT]Tonic | 3:08.89 | 0 | 0 |
| 848 | GhostFireGod | 3:09.69 | 0 | 0 |
| 849 | Purple | 3:10.12 | 0 | 0 |
| 850 | leather n studs bracelet | 3:10.36 | 0 | 0 |
| 851 | DrakZor | 3:10.42 | 0 | 0 |
| 852 | Katatauw | 3:10.66 | 0 | 0 |
| 853 | NeutralArt | 3:10.67 | 0 | 0 |
| 854 | Sytrat | 3:10.70 | 0 | 0 |
| 855 | Sokkero | 3:11.18 | 0 | 0 |
| 856 | Eddie980® | 3:13.06 | 0 | 0 |
| 857 | Epichu | 3:13.35 | 0 | 0 |
| 858 | Konno | 3:13.40 | 0 | 0 |
| 859 | Fandest | 3:15.24 | 0 | 0 |
| 860 | Muse | 3:15.37 | 0 | 0 |
| 861 | Donut Bois'r'Us | 3:15.51 | 0 | 0 |
| 862 | Max | 3:16.53 | 0 | 0 |
| 863 | clou | 3:17.14 | 0 | 0 |
| 864 | OTA Guard | 3:18.39 | 0 | 0 |
| 865 | gilnners | 3:18.81 | 0 | 0 |
| 866 | Dagumi | 3:20.89 | 0 | 0 |
| 867 | ( ჯ෴✘)helking | 3:21.13 | 0 | 0 |
| 868 | Dinkleberg | 3:21.41 | 0 | 0 |
| 869 | Johnnino | 3:21.63 | 0 | 0 |
| 870 | Cayman Cider Raw | 3:21.98 | 0 | 0 |
| 871 | Uschaschmichr | 3:24.37 | 0 | 0 |
| 872 | ||GH꩜STEREAL | 3:24.46 | 0 | 0 |
| 873 | lucker | 3:25.43 | 0 | 0 |
| 874 | Erips | 3:26.24 | 0 | 0 |
| 875 | 01sduran | 3:26.90 | 0 | 0 |
| 876 | Little Trans Punk | 3:26.96 | 0 | 0 |
| 877 | I Fahk'd up | 3:31.54 | 0 | 0 |
| 878 | Night Roost | 3:32.17 | 0 | 0 |
| 879 | Dandolo | 3:33.43 | 0 | 0 |
| 880 | Антон Чигурчик | 3:33.77 | 0 | 0 |
| 881 | CodRaven1728 | 3:36.15 | 0 | 0 |
| 882 | gasatom | 3:39.41 | 0 | 0 |
| 883 | OrionWolf | 3:40.38 | 0 | 0 |
| 884 | xkaitoo_ | 3:40.67 | 0 | 0 |
| 885 | AllDandy | 3:41.17 | 0 | 0 |
| 886 | Akira Furu | 3:41.60 | 0 | 0 |
| 887 | Water.BLUE | 3:41.90 | 0 | 0 |
| 888 | _BlueScorpion_ | 3:42.52 | 0 | 0 |
| 889 | Petitmouton... | 3:42.66 | 0 | 0 |
| 890 | Zimmerman | 3:43.28 | 0 | 0 |
| 891 | meadg | 3:44.84 | 0 | 0 |
| 892 | TheFluffyDragon/JBSTheGamer | 3:46.22 | 0 | 0 |
| 893 | Discriminasian | 3:46.55 | 0 | 0 |
| 894 | ArtBrokeIt | 3:47.80 | 0 | 0 |
| 895 | Patches | 3:48.40 | 0 | 0 |
| 896 | GhostSquad | 3:48.82 | 0 | 0 |
| 897 | Oprah's Pimp Hand | 3:49.06 | 0 | 0 |
| 898 | Sakurablade | 3:51.75 | 0 | 0 |
| 899 | Distinct Soul | 3:52.21 | 0 | 0 |
| 900 | wtflolsng123 | 3:55.42 | 0 | 0 |
| 901 | SC000TER | 3:55.76 | 0 | 0 |
| 902 | BaRa.95. | 3:55.89 | 0 | 0 |
| 903 | peacook | 3:56.09 | 0 | 0 |
| 904 | R-M-@-L | 3:59.31 | 0 | 0 |
| 905 | mando | 4:05.76 | 0 | 0 |
| 906 | Storm the Snep | 4:06.41 | 0 | 0 |
| 907 | Snow way it's AJD2k | 4:06.67 | 0 | 0 |
| 908 | cskpirate | 4:09.32 | 0 | 0 |
| 909 | Shyny Magikarp 🔸 | 4:11.04 | 0 | 0 |
| 910 | Fugashi | 4:11.90 | 0 | 0 |
| 911 | Leinth Aritimis' Ego Totem | 4:13.46 | 0 | 0 |
| 912 | morgansinsidestory | 4:13.51 | 0 | 0 |
| 913 | [Epsilon1] | 4:14.32 | 0 | 0 |
| 914 | Cayce | 4:15.40 | 0 | 0 |
| 915 | Bruxo da colina | 4:18.75 | 0 | 0 |
| 916 | Carl Lucas | 4:19.42 | 0 | 0 |
| 917 | Jigglypuff | 4:20.97 | 0 | 0 |
| 918 | Toastmade | 4:21.35 | 0 | 0 |
| 919 | starfloofer | 4:35.24 | 0 | 0 |
| 920 | xy01 | 4:35.62 | 0 | 0 |
| 921 | ClownPiece | 4:36.70 | 0 | 0 |
| 922 | merki | 4:41.61 | 0 | 0 |
| 923 | Mastermoind | 4:42.61 | 0 | 0 |
| 924 | mohamm11 | 4:45.55 | 0 | 0 |
| 925 | Evan_13 | 5:00.70 | 0 | 0 |
| 926 | OtterWithACapgun | 5:04.22 | 0 | 0 |
| 927 | willhart | 5:04.44 | 0 | 0 |
| 928 | Balarithux | 5:06.67 | 0 | 0 |
| 929 | RedRiotRoss | 5:08.79 | 0 | 0 |
| 930 | InfectedHau | 5:09.59 | 0 | 0 |
| 931 | The Law | 5:10.06 | 0 | 0 |
| 932 | Lecon | 5:17.19 | 0 | 0 |
| 933 | Karposaurus | 5:18.47 | 0 | 0 |
| 934 | caelence | 5:21.29 | 0 | 0 |
| 935 | nono1013 | 5:23.39 | 0 | 0 |
| 936 | MR.CH33ZZY 63 | 5:26.96 | 0 | 0 |
| 937 | Apple | 5:27.21 | 0 | 0 |
| 938 | Tushar123 | 5:43.32 | 0 | 0 |
| 939 | Allen Poe | 5:43.84 | 0 | 0 |
| 940 | Koncrom | 5:49.66 | 0 | 0 |
| 941 | kaasworst | 5:50.34 | 0 | 0 |
| 942 | Veloxceleron | 6:04.48 | 0 | 0 |
| 943 | Aertex | 6:08.25 | 0 | 0 |
| 944 | Zondafreak | 6:10.90 | 0 | 0 |
| 945 | Micotheone | 6:21.96 | 0 | 0 |
| 946 | Willba | 6:32.36 | 0 | 0 |
| 947 | Fudge | 8:46.63 | 0 | 0 |
| 948 | ICBmasterchief | 12:17.71 | 0 | 0 |
| 949 | 123 **********.com | 29:39.77 | 0 | 0 |
HoldGrip